Time;durP1;ratioP1;P1;durP2;ratioP2;P2;SDS_P1;SDS_P2;PMS_P1;PMS_P2;Temp;Humidity;BMP_temperature;BMP_pressure;BME280_temperature;BME280_humidity;BME280_pressure;Samples;Min_cycle;Max_cycle;Signal;HPM_P1;HPM_P2
2022/04/21 00:00:16;;;;;;;3.63;3.28;;;;;;;8.90;60.74;100571.31;5062958;28;20025;-30
2022/04/21 00:02:42;;;;;;;4.85;3.25;;;;;;;8.90;60.68;100573.94;5064411;28;20017;-30
2022/04/21 00:05:12;;;;;;;4.40;2.90;;;;;;;8.88;60.72;100565.19;5064900;28;20082;-30
2022/04/21 00:07:38;;;;;;;3.60;3.30;;;;;;;8.87;60.46;100574.81;5058858;28;20028;-30
2022/04/21 00:10:05;;;;;;;3.92;3.30;;;;;;;8.87;60.73;100572.19;5063427;28;20420;-30
2022/04/21 00:12:33;;;;;;;4.82;3.22;;;;;;;8.87;60.76;100568.69;5060447;28;20054;-30
2022/04/21 00:14:59;;;;;;;4.32;3.78;;;;;;;8.87;60.61;100568.69;5060761;28;20037;-29
2022/04/21 00:17:24;;;;;;;3.65;3.28;;;;;;;8.85;60.70;100572.22;5062783;28;20364;-30
2022/04/21 00:19:49;;;;;;;4.05;3.65;;;;;;;8.84;60.93;100573.06;5062747;28;20029;-32
2022/04/21 00:24:59;;;;;;;3.50;3.20;;;;;;;8.82;60.91;100566.06;5063366;28;20028;-30
2022/04/21 00:27:25;;;;;;;3.50;3.05;;;;;;;8.81;60.80;100573.06;5064873;28;20017;-32
2022/04/21 00:29:50;;;;;;;3.70;3.25;;;;;;;8.80;60.67;100565.22;5060603;28;20064;-30
2022/04/21 00:32:15;;;;;;;5.70;3.80;;;;;;;8.80;60.70;100571.34;5065718;28;20387;-30
2022/04/21 00:34:41;;;;;;;3.40;2.97;;;;;;;8.77;60.76;100560.81;5065723;28;20130;-30
2022/04/21 00:37:06;;;;;;;3.90;3.60;;;;;;;8.78;60.64;100562.59;5064147;28;20021;-29
2022/04/21 00:39:32;;;;;;;4.43;3.40;;;;;;;8.76;60.72;100559.09;5066178;28;20484;-29
2022/04/21 00:42:01;;;;;;;3.90;3.47;;;;;;;8.75;60.73;100562.59;5063899;28;20040;-30
2022/04/21 00:44:28;;;;;;;3.92;3.42;;;;;;;8.76;60.67;100564.34;5069215;28;20107;-30
2022/04/21 00:46:53;;;;;;;4.88;3.78;;;;;;;8.75;60.66;100559.97;5064881;28;20056;-30
2022/04/21 00:49:20;;;;;;;3.50;3.20;;;;;;;8.74;60.75;100566.13;5070546;28;20059;-30
2022/04/21 00:51:45;;;;;;;3.90;3.50;;;;;;;8.75;60.81;100561.72;5060443;28;20456;-30
2022/04/21 00:54:23;;;;;;;3.35;3.00;;;;;;;8.73;60.81;100559.97;5057101;28;20033;-31
2022/04/21 00:56:49;;;;;;;4.00;2.85;;;;;;;8.73;60.88;100559.09;5060475;28;20114;-31
2022/04/21 00:59:15;;;;;;;3.78;3.10;;;;;;;8.72;60.83;100559.97;5061986;28;20032;-28
2022/04/21 01:04:25;;;;;;;4.78;3.17;;;;;;;8.69;60.66;100558.25;5066582;28;20174;-29
2022/04/21 01:06:54;;;;;;;4.70;3.28;;;;;;;8.69;60.76;100557.34;5067318;28;20404;-28
2022/04/21 01:09:19;;;;;;;3.25;2.97;;;;;;;8.68;60.75;100560.88;5064853;28;20531;-29
2022/04/21 01:11:45;;;;;;;3.75;3.38;;;;;;;8.66;60.71;100560.88;5065796;28;20150;-30
2022/04/21 01:14:12;;;;;;;3.20;2.90;;;;;;;8.67;60.71;100559.13;5066653;28;20487;-30
2022/04/21 01:16:38;;;;;;;7.05;3.60;;;;;;;8.65;60.82;100558.25;5050999;28;20490;-30
2022/04/21 01:19:03;;;;;;;3.45;3.15;;;;;;;8.64;60.74;100554.72;5065002;28;20028;-29
2022/04/21 01:21:28;;;;;;;3.67;2.67;;;;;;;8.64;60.79;100561.75;5064803;28;20078;-32
2022/04/21 01:23:54;;;;;;;3.20;2.90;;;;;;;8.62;60.66;100556.50;5065356;28;20032;-30
2022/04/21 01:26:19;;;;;;;3.60;3.30;;;;;;;8.62;60.66;100555.63;5066718;28;20039;-29
2022/04/21 01:28:45;;;;;;;3.50;2.88;;;;;;;8.62;60.63;100560.88;5065156;28;20494;-28
2022/04/21 01:31:11;;;;;;;3.30;2.97;;;;;;;8.59;60.77;100549.50;5062548;28;20641;-30
2022/04/21 01:33:37;;;;;;;3.00;2.78;;;;;;;8.58;60.79;100560.03;5061849;28;20060;-30
2022/04/21 01:36:03;;;;;;;4.35;2.90;;;;;;;8.57;60.46;100548.63;5066179;28;20408;-30
2022/04/21 01:41:12;;;;;;;3.20;2.90;;;;;;;8.54;60.70;100543.38;5064840;28;20063;-30
2022/04/21 01:43:40;;;;;;;3.17;2.88;;;;;;;8.56;60.77;100546.88;5066584;28;20056;-31
2022/04/21 01:46:05;;;;;;;3.53;3.22;;;;;;;8.54;60.61;100543.38;5064661;28;20025;-30
2022/04/21 01:48:31;;;;;;;3.30;2.70;;;;;;;8.53;60.57;100545.97;5064458;28;20459;-29
2022/04/21 01:51:18;;;;;;;3.78;2.97;;;;;;;8.51;60.61;100548.63;5065538;28;20033;-30
2022/04/21 01:53:43;;;;;;;3.83;2.63;;;;;;;8.51;60.36;100540.75;5065108;28;20111;-30
2022/04/21 01:56:08;;;;;;;4.35;3.17;;;;;;;8.50;60.37;100540.75;5065044;28;20028;-29
2022/04/21 01:58:34;;;;;;;4.03;3.10;;;;;;;8.48;60.47;100538.13;5065340;28;20025;-30
2022/04/21 02:00:59;;;;;;;3.80;3.28;;;;;;;8.46;60.72;100534.59;5062611;28;20039;-29
2022/04/21 02:03:24;;;;;;;3.20;2.88;;;;;;;8.46;60.74;100537.22;5064878;28;20020;-30
2022/04/21 02:05:49;;;;;;;3.40;3.10;;;;;;;8.45;60.54;100527.59;5063575;28;20421;-30
2022/04/21 02:08:15;;;;;;;3.72;3.33;;;;;;;8.43;60.59;100526.72;5063608;28;20502;-31
2022/04/21 02:10:41;;;;;;;3.65;3.20;;;;;;;8.43;60.58;100526.72;5063022;28;20041;-31
2022/04/21 02:13:07;;;;;;;3.80;3.00;;;;;;;8.42;60.62;100530.22;5066329;28;20115;-29
2022/04/21 02:15:32;;;;;;;4.53;3.55;;;;;;;8.40;60.62;100532.00;5063002;28;20036;-29
2022/04/21 02:17:59;;;;;;;4.05;3.15;;;;;;;8.39;60.89;100523.22;5066443;28;20443;-30
2022/04/21 02:20:25;;;;;;;4.18;3.15;;;;;;;8.39;60.89;100532.84;5061968;28;20079;-30
2022/04/21 02:22:51;;;;;;;3.63;3.22;;;;;;;8.38;61.08;100528.50;5065732;28;20040;-30
2022/04/21 02:25:16;;;;;;;3.42;2.85;;;;;;;8.38;60.96;100531.13;5064586;28;20492;-30
2022/04/21 02:27:44;;;;;;;4.25;3.20;;;;;;;8.38;61.06;100525.88;5064088;28;20527;-30
2022/04/21 02:30:12;;;;;;;3.42;3.10;;;;;;;8.37;60.84;100524.97;5064375;28;20091;-30
2022/04/21 02:32:38;;;;;;;4.63;4.20;;;;;;;8.33;61.12;100524.13;5062849;28;20028;-30
2022/04/21 02:35:04;;;;;;;3.50;3.17;;;;;;;8.32;61.56;100522.38;5076929;28;20044;-30
2022/04/21 02:37:43;;;;;;;5.07;3.40;;;;;;;8.32;61.31;100525.00;5062606;28;20029;-29
2022/04/21 02:40:09;;;;;;;5.13;3.42;;;;;;;8.32;61.12;100516.25;5064296;28;20036;-30
2022/04/21 02:42:38;;;;;;;3.65;3.28;;;;;;;8.30;61.37;100518.00;5059826;28;20546;-29
2022/04/21 02:45:09;;;;;;;3.80;3.45;;;;;;;8.30;61.22;100532.00;5062436;28;20137;-30
2022/04/21 02:47:35;;;;;;;4.53;3.38;;;;;;;8.29;61.06;100530.28;5063316;28;20051;-30
2022/04/21 02:50:00;;;;;;;3.60;3.30;;;;;;;8.28;61.28;100525.91;5062904;28;20024;-31
2022/04/21 02:52:26;;;;;;;4.13;3.03;;;;;;;8.28;60.90;100525.00;5066536;28;20112;-30
2022/04/21 02:57:40;;;;;;;3.92;3.33;;;;;;;8.26;61.11;100519.75;5056561;28;20034;-30
2022/04/21 03:00:07;;;;;;;4.50;4.10;;;;;;;8.25;60.91;100519.75;5058537;28;20095;-30
2022/04/21 03:02:32;;;;;;;4.35;3.10;;;;;;;8.24;60.84;100507.50;5061407;28;20032;-29
2022/04/21 03:04:57;;;;;;;4.32;3.92;;;;;;;8.23;61.18;100511.03;5066118;28;20030;-30
2022/04/21 03:07:23;;;;;;;5.40;3.25;;;;;;;8.23;61.05;100508.41;5064251;28;20511;-29
2022/04/21 03:09:49;;;;;;;3.83;3.35;;;;;;;8.21;61.00;100513.66;5061671;28;20024;-30
2022/04/21 03:12:14;;;;;;;6.43;4.78;;;;;;;8.20;61.00;100507.50;5059184;28;20103;-30
2022/04/21 03:14:41;;;;;;;4.10;3.05;;;;;;;8.19;61.07;100507.50;5065327;28;20104;-30
2022/04/21 03:17:08;;;;;;;3.80;3.40;;;;;;;8.18;60.98;100509.28;5066782;28;20024;-30
2022/04/21 03:19:34;;;;;;;4.65;3.55;;;;;;;8.16;60.94;100510.13;5065867;28;20021;-31
2022/04/21 03:24:43;;;;;;;3.90;3.13;;;;;;;8.15;61.08;100508.38;5065842;28;20269;-30
2022/04/21 03:27:08;;;;;;;4.05;3.47;;;;;;;8.13;61.18;100500.50;5058526;28;20056;-30
2022/04/21 03:29:40;;;;;;;6.07;3.55;;;;;;;8.13;60.72;100510.16;5065000;28;20075;-31
2022/04/21 03:32:10;;;;;;;4.68;3.42;;;;;;;8.12;60.85;100503.13;5060564;28;20024;-30
2022/04/21 03:34:40;;;;;;;5.25;3.63;;;;;;;8.11;61.03;100507.53;5065499;28;20478;-31
2022/04/21 03:37:06;;;;;;;3.42;3.13;;;;;;;8.09;60.85;100504.03;5062959;28;20028;-30
2022/04/21 03:39:31;;;;;;;5.32;3.78;;;;;;;8.08;60.85;100508.38;5057784;28;20021;-31
2022/04/21 03:41:56;;;;;;;3.80;3.03;;;;;;;8.07;61.05;100506.66;5062032;28;20499;-30
2022/04/21 03:44:22;;;;;;;4.57;3.63;;;;;;;8.05;61.02;100508.41;5065743;28;20024;-29
2022/04/21 03:46:47;;;;;;;4.57;3.63;;;;;;;8.06;60.97;100509.28;5064169;28;20594;-29
2022/04/21 03:49:13;;;;;;;3.78;3.28;;;;;;;8.05;60.85;100512.78;5067099;28;20022;-31
2022/04/21 03:51:38;;;;;;;4.85;3.47;;;;;;;8.03;61.00;100506.66;5064136;28;20031;-29
2022/04/21 03:54:04;;;;;;;6.20;3.83;;;;;;;8.02;61.36;100512.78;5063928;28;20063;-29
2022/04/21 03:56:30;;;;;;;19.52;12.45;;;;;;;8.02;61.20;100515.41;5065372;28;20407;-30
2022/04/21 03:58:56;;;;;;;42.42;28.48;;;;;;;8.01;61.25;100511.94;5062915;28;20039;-30
2022/04/21 04:01:22;;;;;;;46.63;35.78;;;;;;;8.01;61.32;100518.91;5062546;28;20031;-30
2022/04/21 04:03:48;;;;;;;44.47;33.50;;;;;;;7.98;61.36;100522.44;5062070;28;20033;-29
2022/04/21 04:11:42;;;;;;;37.30;29.67;;;;;;;7.95;61.25;100523.31;5065443;28;20070;-31
2022/04/21 04:14:07;;;;;;;37.70;29.85;;;;;;;7.96;61.25;100524.16;5079457;28;20044;-30
2022/04/21 04:16:37;;;;;;;38.47;27.67;;;;;;;7.93;60.97;100519.78;5065966;28;20078;-30
2022/04/21 04:19:07;;;;;;;33.70;26.35;;;;;;;7.92;61.04;100530.31;5062762;28;20762;-29
2022/04/21 04:21:33;;;;;;;33.65;24.27;;;;;;;7.93;61.44;100526.78;5065557;28;20082;-30
2022/04/21 04:23:58;;;;;;;31.08;24.00;;;;;;;7.92;61.39;100525.06;5064261;28;20484;-32
2022/04/21 04:26:24;;;;;;;28.52;22.58;;;;;;;7.91;61.47;100528.56;5059251;28;20099;-30
2022/04/21 04:28:49;;;;;;;30.02;22.23;;;;;;;7.90;61.13;100532.94;5066421;28;20025;-31
2022/04/21 04:31:15;;;;;;;31.77;23.33;;;;;;;7.89;61.17;100532.94;5063267;28;20381;-30
2022/04/21 04:33:40;;;;;;;29.15;22.50;;;;;;;7.89;61.37;100523.31;5064229;28;20058;-30
2022/04/21 04:36:05;;;;;;;27.88;21.35;;;;;;;7.88;61.43;100532.06;5064396;28;20048;-31
2022/04/21 04:38:31;;;;;;;25.48;19.83;;;;;;;7.87;61.26;100524.19;5064234;28;20051;-30
2022/04/21 04:40:56;;;;;;;25.45;19.95;;;;;;;7.87;61.20;100545.19;5060129;28;20024;-29
2022/04/21 04:43:28;;;;;;;23.10;18.80;;;;;;;7.86;61.10;100540.78;5062710;28;20384;-30
2022/04/21 04:48:37;;;;;;;22.65;18.48;;;;;;;7.83;61.27;100544.31;5063704;28;20525;-30
2022/04/21 04:51:02;;;;;;;20.45;16.17;;;;;;;7.81;61.65;100540.81;5064332;28;20032;-30
2022/04/21 04:53:27;;;;;;;20.52;16.63;;;;;;;7.83;61.62;100547.81;5065457;28;20074;-30
2022/04/21 04:55:53;;;;;;;19.75;16.73;;;;;;;7.82;61.50;100548.69;5065920;28;20024;-31
2022/04/21 04:58:18;;;;;;;19.90;15.85;;;;;;;7.81;61.33;100552.19;5060296;28;20396;-31
2022/04/21 05:00:46;;;;;;;18.67;15.20;;;;;;;7.82;61.14;100550.44;5063459;28;20024;-30
2022/04/21 05:03:12;;;;;;;16.77;14.05;;;;;;;7.81;61.16;100552.19;5058488;28;20106;-30
2022/04/21 05:05:37;;;;;;;17.70;14.15;;;;;;;7.79;61.65;100543.44;5058783;28;20041;-30
2022/04/21 05:08:05;;;;;;;18.17;13.48;;;;;;;7.81;61.28;100553.94;5062750;28;20024;-30
2022/04/21 05:10:31;;;;;;;14.43;12.48;;;;;;;7.79;60.99;100548.69;5064390;28;20037;-29
2022/04/21 05:12:57;;;;;;;15.48;12.77;;;;;;;7.77;61.57;100547.81;5065223;28;20023;-30
2022/04/21 05:15:22;;;;;;;14.20;11.60;;;;;;;7.77;61.56;100550.44;5062632;28;20093;-30
2022/04/21 05:17:48;;;;;;;14.23;11.02;;;;;;;7.78;61.64;100551.31;5064739;28;20032;-29
2022/04/21 05:20:13;;;;;;;14.77;10.98;;;;;;;7.77;61.71;100549.56;5063313;28;20155;-29
2022/04/21 05:22:39;;;;;;;12.88;11.10;;;;;;;7.77;61.54;100550.44;5067653;28;20066;-30
2022/04/21 05:25:09;;;;;;;12.73;11.07;;;;;;;7.78;61.81;100553.94;5068761;28;20043;-32
2022/04/21 05:27:34;;;;;;;12.13;10.43;;;;;;;7.78;61.81;100546.06;5065071;28;20027;-30
2022/04/21 05:32:45;;;;;;;12.95;10.18;;;;;;;7.76;61.76;100540.81;5064408;28;20463;-30
2022/04/21 05:35:11;;;;;;;11.20;10.00;;;;;;;7.77;61.92;100539.94;5067084;28;20082;-30
2022/04/21 05:37:37;;;;;;;11.25;10.15;;;;;;;7.77;61.95;100539.94;5068676;28;20025;-30
2022/04/21 05:40:04;;;;;;;11.07;9.63;;;;;;;7.77;61.68;100528.56;5066219;28;20020;-30
2022/04/21 05:42:34;;;;;;;10.48;9.45;;;;;;;7.77;61.97;100536.44;5066432;28;20021;-30
2022/04/21 05:45:00;;;;;;;10.75;9.55;;;;;;;7.77;62.08;100528.56;5066175;28;20020;-29
2022/04/21 05:47:25;;;;;;;9.73;8.82;;;;;;;7.78;62.19;100532.94;5063734;28;20032;-30
2022/04/21 05:49:51;;;;;;;9.95;8.95;;;;;;;7.76;62.47;100538.19;5067715;28;20505;-30
2022/04/21 05:52:16;;;;;;;9.80;8.80;;;;;;;7.77;62.67;100529.41;5065853;28;20020;-30
2022/04/21 05:54:42;;;;;;;10.07;8.98;;;;;;;7.78;62.46;100540.81;5063656;28;20025;-30
2022/04/21 05:57:07;;;;;;;11.55;7.75;;;;;;;7.78;62.52;100531.19;5066352;28;20032;-30
2022/04/21 05:59:34;;;;;;;9.57;8.02;;;;;;;7.81;62.26;100535.56;5067619;28;20021;-30
2022/04/21 06:01:59;;;;;;;9.48;7.43;;;;;;;7.80;62.79;100545.19;5065847;28;20070;-30
2022/04/21 06:04:25;;;;;;;8.05;7.00;;;;;;;7.81;62.85;100546.06;5062695;28;20097;-30
2022/04/21 06:07:13;;;;;;;8.63;7.78;;;;;;;7.82;62.87;100553.94;5067062;28;20163;-30
2022/04/21 06:09:40;;;;;;;9.52;7.07;;;;;;;7.83;62.76;100560.94;5065734;28;20016;-29
2022/04/21 06:12:10;;;;;;;7.63;6.90;;;;;;;7.82;63.03;100559.19;5065321;28;20059;-30
2022/04/21 06:14:38;;;;;;;8.07;6.57;;;;;;;7.84;63.01;100556.59;5066263;28;20028;-30
2022/04/21 06:17:04;;;;;;;7.70;7.00;;;;;;;7.85;62.94;100552.19;5067762;28;20051;-29
2022/04/21 06:19:29;;;;;;;7.95;6.85;;;;;;;7.87;62.96;100555.69;5065399;28;20491;-30
2022/04/21 06:21:54;;;;;;;6.93;6.25;;;;;;;7.87;63.00;100553.94;5068218;28;20028;-30
2022/04/21 06:24:20;;;;;;;9.05;6.07;;;;;;;7.87;63.19;100545.19;5066438;28;20137;-33
2022/04/21 06:26:45;;;;;;;6.50;5.90;;;;;;;7.90;63.06;100547.81;5069501;28;20064;-30
2022/04/21 06:29:10;;;;;;;7.30;5.63;;;;;;;7.90;62.94;100550.44;5066086;28;20048;-30
2022/04/21 06:31:36;;;;;;;8.23;6.35;;;;;;;7.89;63.18;100549.56;5064945;28;20021;-30
2022/04/21 06:34:02;;;;;;;5.95;5.38;;;;;;;7.91;63.79;100541.69;5063198;28;20029;-31
2022/04/21 06:36:28;;;;;;;6.55;5.45;;;;;;;7.92;63.80;100544.31;5064412;28;20438;-30
2022/04/21 06:38:53;;;;;;;7.25;5.85;;;;;;;7.94;63.43;100552.19;5067656;28;20082;-31
2022/04/21 06:41:18;;;;;;;6.97;5.80;;;;;;;7.94;63.49;100547.81;5059080;28;20476;-30
2022/04/21 06:49:12;;;;;;;5.88;5.38;;;;;;;7.95;63.53;100538.19;5062216;28;20043;-30
2022/04/21 06:51:39;;;;;;;5.32;4.85;;;;;;;7.98;63.48;100547.81;5063517;28;20013;-30
2022/04/21 06:54:05;;;;;;;5.70;5.18;;;;;;;7.99;63.88;100544.28;5064386;28;20403;-30
2022/04/21 06:56:30;;;;;;;7.20;5.25;;;;;;;7.99;64.22;100555.69;5066442;28;20016;-30
2022/04/21 06:58:55;;;;;;;8.52;5.10;;;;;;;7.98;63.94;100556.56;5064666;28;20111;-30
2022/04/21 07:01:22;;;;;;;7.38;5.75;;;;;;;8.00;64.38;100565.31;5064526;28;20024;-32
2022/04/21 07:03:47;;;;;;;5.35;4.70;;;;;;;8.01;64.11;100564.47;5062876;28;20027;-30
2022/04/21 07:06:12;;;;;;;7.88;5.80;;;;;;;8.02;63.76;100575.81;5069464;28;20025;-29
2022/04/21 07:08:37;;;;;;;7.65;5.10;;;;;;;8.01;63.87;100574.06;5067356;28;20444;-29
2022/04/21 07:11:03;;;;;;;6.03;4.88;;;;;;;8.02;63.65;100571.44;5065183;28;20206;-30
2022/04/21 07:13:28;;;;;;;5.90;5.38;;;;;;;8.01;63.54;100569.72;5065177;28;20021;-33
2022/04/21 07:15:54;;;;;;;7.70;4.90;;;;;;;8.03;64.01;100573.19;5064896;28;20036;-30
2022/04/21 07:18:19;;;;;;;5.95;4.38;;;;;;;8.04;64.18;100564.44;5061577;28;20480;-30
2022/04/21 07:20:44;;;;;;;6.47;5.07;;;;;;;8.04;64.06;100568.84;5065539;28;20085;-30
2022/04/21 07:23:11;;;;;;;7.93;4.63;;;;;;;8.06;64.55;100569.69;5067721;28;20190;-30
2022/04/21 07:25:36;;;;;;;5.90;4.70;;;;;;;8.06;64.53;100572.31;5063792;28;20024;-31
2022/04/21 07:28:01;;;;;;;6.95;4.85;;;;;;;8.06;64.61;100573.19;5064284;28;20028;-31
2022/04/21 07:30:27;;;;;;;8.82;5.55;;;;;;;8.08;64.90;100575.84;5059714;28;20039;-29
2022/04/21 07:32:52;;;;;;;6.55;5.20;;;;;;;8.08;65.11;100576.69;5064008;28;20040;-30
2022/04/21 07:35:18;;;;;;;7.13;5.57;;;;;;;8.09;65.09;100577.56;5064055;28;20029;-30
2022/04/21 07:37:44;;;;;;;7.78;5.72;;;;;;;8.11;65.57;100574.94;5062568;28;20028;-30
2022/04/21 07:40:09;;;;;;;5.75;5.10;;;;;;;8.13;64.92;100573.22;5064975;28;20016;-29
2022/04/21 07:42:35;;;;;;;7.00;5.10;;;;;;;8.14;65.32;100559.19;5063276;28;20241;-29
2022/04/21 07:45:01;;;;;;;8.63;5.30;;;;;;;8.16;65.20;100574.06;5065042;28;20024;-30
2022/04/21 07:47:27;;;;;;;6.45;5.13;;;;;;;8.17;65.39;100570.56;5066744;28;20591;-30
2022/04/21 07:49:52;;;;;;;6.30;5.70;;;;;;;8.21;65.57;100581.97;5061700;28;20445;-29
2022/04/21 07:55:11;;;;;;;10.48;5.60;;;;;;;8.27;65.60;100574.06;5062362;28;20031;-33
2022/04/21 07:57:36;;;;;;;8.15;5.50;;;;;;;8.30;65.65;100573.19;5066552;28;20065;-31
2022/04/21 08:00:03;;;;;;;9.18;5.00;;;;;;;8.31;65.43;100567.91;5064053;28;20117;-29
2022/04/21 08:02:29;;;;;;;8.25;5.50;;;;;;;8.32;65.91;100559.19;5062072;28;20031;-30
2022/04/21 08:04:54;;;;;;;6.15;5.55;;;;;;;8.36;65.23;100559.19;5063954;28;20024;-30
2022/04/21 08:07:19;;;;;;;6.65;5.38;;;;;;;8.39;65.57;100569.66;5065829;28;20031;-29
2022/04/21 08:09:45;;;;;;;8.93;6.68;;;;;;;8.41;65.75;100565.28;5062614;28;20387;-29
2022/04/21 08:12:10;;;;;;;6.78;5.28;;;;;;;8.44;65.96;100562.66;5063894;28;20021;-30
2022/04/21 08:14:35;;;;;;;7.03;5.40;;;;;;;8.48;65.94;100567.03;5064586;28;20029;-30
2022/04/21 08:17:02;;;;;;;6.95;5.75;;;;;;;8.52;65.75;100567.88;5065488;28;20112;-30
2022/04/21 08:19:28;;;;;;;10.70;5.70;;;;;;;8.54;65.53;100559.13;5065788;28;20056;-33
2022/04/21 08:21:53;;;;;;;7.22;5.70;;;;;;;8.58;66.30;100574.03;5046544;28;20122;-30
2022/04/21 08:32:45;;;;;;;5.95;5.15;;;;;;;8.75;65.20;100588.00;5060724;28;20082;-30
2022/04/21 08:35:15;;;;;;;6.22;5.63;;;;;;;8.79;64.95;100589.75;5064041;28;20047;-29
2022/04/21 08:37:41;;;;;;;6.93;5.55;;;;;;;8.85;64.87;100595.00;5061737;28;20913;-30
2022/04/21 08:40:08;;;;;;;6.45;5.85;;;;;;;8.88;64.95;100589.75;5057553;28;20028;-29
2022/04/21 08:42:39;;;;;;;6.47;5.72;;;;;;;8.92;65.21;100595.84;5060936;28;20526;-30
2022/04/21 08:45:06;;;;;;;9.38;5.65;;;;;;;8.97;65.04;100591.47;5062518;28;20032;-30
2022/04/21 08:47:32;;;;;;;8.98;5.80;;;;;;;9.01;65.32;100595.84;5063559;28;20431;-30
2022/04/21 08:50:11;;;;;;;9.68;6.28;;;;;;;9.05;65.43;100597.56;5062689;28;20818;-29
2022/04/21 08:52:37;;;;;;;9.40;6.57;;;;;;;9.07;65.47;100594.94;5064149;28;20021;-29
2022/04/21 08:55:03;;;;;;;11.32;6.97;;;;;;;9.11;65.07;100597.53;5065023;28;20029;-30
2022/04/21 08:57:30;;;;;;;8.05;6.65;;;;;;;9.15;65.01;100602.78;5069335;28;20016;-29
2022/04/21 08:59:56;;;;;;;9.63;6.10;;;;;;;9.18;64.89;100597.50;5064897;28;20029;-28
2022/04/21 09:02:22;;;;;;;8.93;6.90;;;;;;;9.21;64.93;100600.13;5063579;28;20016;-30
2022/04/21 09:04:47;;;;;;;10.57;6.70;;;;;;;9.23;65.21;100607.13;5068375;28;20033;-28
2022/04/21 09:07:20;;;;;;;11.93;6.20;;;;;;;9.29;64.65;100600.97;5068769;28;20095;-30
2022/04/21 09:10:06;;;;;;;10.27;6.30;;;;;;;9.33;64.57;100605.31;5068293;28;20087;-29
2022/04/21 09:12:32;;;;;;;9.25;6.97;;;;;;;9.35;64.49;100605.31;5066897;28;20023;-31
2022/04/21 09:14:57;;;;;;;9.95;6.40;;;;;;;9.39;64.74;100596.53;5065449;28;20031;-30
2022/04/21 09:17:23;;;;;;;10.55;7.45;;;;;;;9.42;64.28;100595.63;5063775;28;20036;-30
2022/04/21 09:19:59;;;;;;;10.43;6.63;;;;;;;9.45;64.29;100595.63;5064198;28;20133;-29
2022/04/21 09:22:24;;;;;;;9.30;7.05;;;;;;;9.48;64.33;100600.88;5068894;28;20024;-29
2022/04/21 09:24:53;;;;;;;8.60;7.70;;;;;;;9.52;64.72;100613.13;5066123;28;20375;-29
2022/04/21 09:27:19;;;;;;;12.65;7.38;;;;;;;9.55;64.48;100607.84;5065846;28;20021;-29
2022/04/21 09:29:45;;;;;;;10.98;6.80;;;;;;;9.56;64.70;100609.59;5066546;28;20025;-29
2022/04/21 09:32:15;;;;;;;10.32;8.05;;;;;;;9.61;64.74;100612.22;5064781;28;20380;-32
2022/04/21 09:34:45;;;;;;;9.20;7.18;;;;;;;9.63;64.40;100605.16;5063496;28;20511;-29
2022/04/21 09:37:10;;;;;;;12.50;7.72;;;;;;;9.67;64.44;100606.03;5066349;28;20499;-30
2022/04/21 09:39:39;;;;;;;9.85;6.97;;;;;;;9.68;64.47;100602.50;5070648;28;20024;-29
2022/04/21 09:42:05;;;;;;;12.23;7.47;;;;;;;9.72;64.01;100609.50;5069476;28;20017;-29
2022/04/21 09:47:20;;;;;;;10.85;8.68;;;;;;;9.80;64.46;100586.59;5067425;28;20123;-29
2022/04/21 09:49:45;;;;;;;11.13;7.25;;;;;;;9.83;64.27;100596.25;5064179;28;20499;-29
2022/04/21 09:52:11;;;;;;;11.60;8.88;;;;;;;9.86;64.38;100583.06;5066463;28;20032;-30
2022/04/21 09:54:36;;;;;;;9.25;7.72;;;;;;;9.90;64.35;100582.13;5065455;28;20111;-29
2022/04/21 09:57:03;;;;;;;11.18;7.45;;;;;;;9.95;64.31;100584.75;5065029;28;20483;-29
2022/04/21 09:59:29;;;;;;;9.73;8.13;;;;;;;10.01;64.24;100580.28;5064172;28;20110;-30
2022/04/21 10:01:54;;;;;;;11.75;7.60;;;;;;;10.08;64.37;100580.25;5065971;28;20016;-30
2022/04/21 10:04:20;;;;;;;12.30;7.90;;;;;;;10.13;64.25;100578.44;5081647;28;20021;-29
2022/04/21 10:06:46;;;;;;;11.02;8.32;;;;;;;10.16;64.58;100572.25;5067596;28;20028;-30
2022/04/21 10:09:13;;;;;;;10.48;8.32;;;;;;;10.25;64.46;100567.81;5064609;28;20029;-29
2022/04/21 10:11:42;;;;;;;13.30;9.00;;;;;;;10.31;65.14;100569.50;5067526;28;20103;-29
2022/04/21 10:14:16;;;;;;;8.05;7.22;;;;;;;10.42;64.46;100566.75;5065570;28;20089;-30
2022/04/21 10:16:42;;;;;;;11.45;9.18;;;;;;;10.44;65.17;100564.97;5060041;28;20027;-30
2022/04/21 10:19:09;;;;;;;11.02;8.55;;;;;;;10.55;64.96;100553.47;5066398;28;20480;-30
2022/04/21 10:21:48;;;;;;;12.00;8.18;;;;;;;10.67;64.18;100555.97;5066505;28;20020;-30
2022/04/21 10:24:13;;;;;;;11.25;8.15;;;;;;;10.77;64.32;100548.81;5067665;28;20557;-30
2022/04/21 10:26:41;;;;;;;12.18;8.55;;;;;;;10.86;63.62;100548.72;5065748;28;20028;-29
2022/04/21 10:29:27;;;;;;;9.98;7.85;;;;;;;10.96;64.02;100543.31;5067259;28;20445;-29
2022/04/21 10:31:56;;;;;;;10.38;9.27;;;;;;;11.01;64.20;100536.22;5068380;28;20484;-30
2022/04/21 10:34:39;;;;;;;11.23;8.65;;;;;;;11.15;63.82;100529.00;5067006;28;20370;-30
2022/04/21 10:37:20;;;;;;;14.68;9.57;;;;;;;11.19;64.35;100539.50;5064015;28;20040;-30
2022/04/21 10:40:01;;;;;;;9.95;8.35;;;;;;;11.34;63.78;100534.00;5062017;28;20369;-28
2022/04/21 10:42:26;;;;;;;10.48;9.30;;;;;;;11.43;63.18;100530.34;5062955;28;20025;-29
2022/04/21 10:44:53;;;;;;;9.00;7.90;;;;;;;11.53;62.57;100533.72;5065768;28;20028;-29
2022/04/21 10:47:38;;;;;;;10.85;8.10;;;;;;;11.64;62.42;100533.56;5065903;28;20056;-29
2022/04/21 10:50:20;;;;;;;13.77;8.65;;;;;;;11.72;62.53;100531.69;5062882;28;20050;-29
2022/04/21 10:58:34;;;;;;;10.98;8.88;;;;;;;11.93;63.26;100514.59;5064669;28;20081;-29
2022/04/21 11:01:16;;;;;;;20.55;9.40;;;;;;;12.01;62.53;100517.09;5064591;28;20031;-28
2022/04/21 11:03:43;;;;;;;11.63;8.23;;;;;;;12.10;62.02;100523.16;5062424;28;20016;-29
2022/04/21 11:06:12;;;;;;;10.50;8.80;;;;;;;12.15;61.84;100524.81;5066990;28;20020;-28
2022/04/21 11:08:38;;;;;;;11.88;9.18;;;;;;;12.22;61.85;100522.06;5065378;28;20050;-30
2022/04/21 11:11:05;;;;;;;10.55;9.20;;;;;;;12.28;61.75;100514.88;5066942;28;20441;-29
2022/04/21 11:13:48;;;;;;;13.50;9.38;;;;;;;12.34;61.74;100513.03;5063827;28;20052;-29
2022/04/21 11:16:47;;;;;;;10.93;8.73;;;;;;;12.38;61.80;100517.34;5061409;28;20037;-30
2022/04/21 11:19:34;;;;;;;12.80;9.50;;;;;;;12.41;61.55;100518.16;5063247;28;20024;-29
2022/04/21 11:22:07;;;;;;;15.45;9.30;;;;;;;12.43;61.59;100519.00;5063829;28;20019;-30
2022/04/21 11:25:01;;;;;;;11.05;8.95;;;;;;;12.48;61.18;100524.22;5064519;28;20016;-30
2022/04/21 11:27:26;;;;;;;9.85;8.85;;;;;;;12.49;61.28;100514.50;5061773;28;20040;-30
2022/04/21 11:29:52;;;;;;;14.73;9.57;;;;;;;12.51;61.14;100521.50;5063493;28;20024;-30
2022/04/21 11:32:18;;;;;;;9.15;8.18;;;;;;;12.53;60.76;100518.81;5064036;28;20475;-29
2022/04/21 11:35:00;;;;;;;10.35;8.30;;;;;;;12.54;60.88;100515.28;5064692;28;20036;-30
2022/04/21 11:37:43;;;;;;;;;;;;;;;12.54;60.78;100515.28;5064196;28;20384;-29
2022/04/21 11:40:22;;;;;;;10.18;8.55;;;;;;;12.53;60.91;100516.16;5064320;28;19908;-29
2022/04/21 11:42:49;;;;;;;12.75;8.80;;;;;;;12.52;60.81;100519.72;5063122;28;20476;-30
2022/04/21 11:45:28;;;;;;;10.90;8.40;;;;;;;12.54;60.37;100525.88;5064835;28;20038;-30
2022/04/21 11:47:54;;;;;;;10.52;8.52;;;;;;;12.52;60.43;100525.91;5063217;28;20024;-29
2022/04/21 11:50:21;;;;;;;11.77;9.93;;;;;;;12.51;60.82;100524.13;5067315;28;20032;-29
2022/04/21 11:52:47;;;;;;;9.90;8.23;;;;;;;12.51;60.60;100534.72;5063660;28;20020;-29
2022/04/21 11:55:15;;;;;;;11.85;8.25;;;;;;;12.49;60.92;100535.66;5055575;28;20025;-29
2022/04/21 11:57:42;;;;;;;8.82;7.85;;;;;;;12.50;60.77;100530.34;5065715;28;20388;-29
2022/04/21 12:00:09;;;;;;;14.50;9.30;;;;;;;12.49;61.17;100540.94;5047024;28;20025;-29
2022/04/21 12:08:06;;;;;;;8.98;7.50;;;;;;;12.43;61.53;100531.34;5062885;28;20056;-30
2022/04/21 12:10:31;;;;;;;10.38;8.15;;;;;;;12.42;60.99;100524.31;5062999;28;20609;-30
2022/04/21 12:12:57;;;;;;;10.10;8.15;;;;;;;12.39;61.41;100527.03;5063830;28;20025;-30
2022/04/21 12:15:32;;;;;;;10.40;9.05;;;;;;;12.38;61.49;100534.09;5058768;28;20020;-28
2022/04/21 12:18:02;;;;;;;11.27;8.40;;;;;;;12.39;60.79;100534.97;5066110;28;20029;-30
2022/04/21 12:20:27;;;;;;;8.88;7.97;;;;;;;12.38;61.34;100534.09;5066175;28;20074;-29
2022/04/21 12:22:54;;;;;;;12.68;8.27;;;;;;;12.37;61.23;100537.63;5064090;28;20028;-29
2022/04/21 12:25:28;;;;;;;11.90;8.88;;;;;;;12.35;61.32;100538.56;5061142;28;20111;-29